メインページ
METAR-TAF:

METAR-TAF

空港 :

キュラソー島, オランダ領アンティル

ハト国際空港

緯度: 12-12N, 経度: 068-58W, 海抜: 9m

現時点の気象観測

当レポートは34分前の22:00(UTC)に作成
の風 11kt
気温 29°C
湿度 79%
気圧 1011 hPa
視程10km以上
高度1800ftの雲はほとんどない

METAR: TNCC 262200Z 10011KT 9999 FEW018 29/25 Q1011 NOSIG

時間: 18:34 (22:34 UTC)

予報

当レポートは6時間49分前の15:45(UTC)に作成
予報は26日の 18時(UTC)から 27日の 18時(UTC)まで有効
の風 15kt
視程10km以上
高度2000ftの雲は散在している

TAF: TNCC 261545Z 2618/2718 10015KT 9999 SCT020

4,000以上の空港の気象観測と天気予報(METAR報とTAF報)

利用可能な観測所は地図上に黄色い丸と赤い丸で示す。

丸の上にカーソルを重ねると観測所名を参照できる。

次にクリックすると気象観測と天気予報を参照できる。

マップの切り替え:黒色「×」印の緑ボタンをクリックして拡大、「-」印の緑ボタンをクリックして縮小、緑色の三角印をクリックして隣りの地図に切り替え


METAR-TAF: